sensor_id;sensor_type;location;lat;lon;timestamp;temperature;humidity
6146;DHT22;3104;50.348;7.620;2022-07-10T00:00:10;16.10;99.90
6146;DHT22;3104;50.348;7.620;2022-07-10T00:02:39;16.10;99.90
6146;DHT22;3104;50.348;7.620;2022-07-10T00:05:06;16.20;99.90
6146;DHT22;3104;50.348;7.620;2022-07-10T00:07:32;16.10;99.90
6146;DHT22;3104;50.348;7.620;2022-07-10T00:09:57;16.10;99.90
6146;DHT22;3104;50.348;7.620;2022-07-10T00:12:23;16.00;99.90
6146;DHT22;3104;50.348;7.620;2022-07-10T00:14:48;16.00;99.90
6146;DHT22;3104;50.348;7.620;2022-07-10T00:17:14;15.90;99.90
6146;DHT22;3104;50.348;7.620;2022-07-10T00:19:40;15.80;99.90
6146;DHT22;3104;50.348;7.620;2022-07-10T00:22:05;15.80;99.90
6146;DHT22;3104;50.348;7.620;2022-07-10T00:24:31;15.90;99.90
6146;DHT22;3104;50.348;7.620;2022-07-10T00:26:57;15.80;99.90
6146;DHT22;3104;50.348;7.620;2022-07-10T00:29:23;15.80;99.90
6146;DHT22;3104;50.348;7.620;2022-07-10T00:31:48;15.90;99.90
6146;DHT22;3104;50.348;7.620;2022-07-10T00:34:14;15.80;99.90
6146;DHT22;3104;50.348;7.620;2022-07-10T00:36:39;15.70;99.90
6146;DHT22;3104;50.348;7.620;2022-07-10T00:39:05;15.50;99.90
6146;DHT22;3104;50.348;7.620;2022-07-10T00:41:31;15.40;99.90
6146;DHT22;3104;50.348;7.620;2022-07-10T00:43:58;15.30;99.90
6146;DHT22;3104;50.348;7.620;2022-07-10T00:46:25;15.30;99.90
6146;DHT22;3104;50.348;7.620;2022-07-10T00:48:52;15.30;99.90
6146;DHT22;3104;50.348;7.620;2022-07-10T00:51:20;15.40;99.90
6146;DHT22;3104;50.348;7.620;2022-07-10T00:53:48;15.40;99.90
6146;DHT22;3104;50.348;7.620;2022-07-10T00:56:19;15.30;99.90
6146;DHT22;3104;50.348;7.620;2022-07-10T00:58:46;15.20;99.90
6146;DHT22;3104;50.348;7.620;2022-07-10T01:01:12;15.10;99.90
6146;DHT22;3104;50.348;7.620;2022-07-10T01:03:37;15.00;99.90
6146;DHT22;3104;50.348;7.620;2022-07-10T01:06:03;15.00;99.90
6146;DHT22;3104;50.348;7.620;2022-07-10T01:08:29;14.90;99.90
6146;DHT22;3104;50.348;7.620;2022-07-10T01:10:55;14.80;99.90
6146;DHT22;3104;50.348;7.620;2022-07-10T01:13:21;14.80;99.90
6146;DHT22;3104;50.348;7.620;2022-07-10T01:15:47;14.70;99.90
6146;DHT22;3104;50.348;7.620;2022-07-10T01:18:14;14.70;99.90
6146;DHT22;3104;50.348;7.620;2022-07-10T01:20:39;14.60;99.90
6146;DHT22;3104;50.348;7.620;2022-07-10T01:23:05;14.60;99.90
6146;DHT22;3104;50.348;7.620;2022-07-10T01:25:30;14.60;99.90
6146;DHT22;3104;50.348;7.620;2022-07-10T01:27:56;14.60;99.90
6146;DHT22;3104;50.348;7.620;2022-07-10T01:30:22;14.40;99.90
6146;DHT22;3104;50.348;7.620;2022-07-10T01:32:47;14.40;99.90
6146;DHT22;3104;50.348;7.620;2022-07-10T01:35:13;14.40;99.90
6146;DHT22;3104;50.348;7.620;2022-07-10T01:37:40;14.30;99.90
6146;DHT22;3104;50.348;7.620;2022-07-10T01:40:07;14.30;99.90
6146;DHT22;3104;50.348;7.620;2022-07-10T01:42:33;14.40;99.90
6146;DHT22;3104;50.348;7.620;2022-07-10T01:44:58;14.30;99.90
6146;DHT22;3104;50.348;7.620;2022-07-10T01:47:24;14.20;99.90
6146;DHT22;3104;50.348;7.620;2022-07-10T01:49:52;14.20;99.90
6146;DHT22;3104;50.348;7.620;2022-07-10T01:52:20;14.20;99.90
6146;DHT22;3104;50.348;7.620;2022-07-10T01:54:49;14.10;99.90
6146;DHT22;3104;50.348;7.620;2022-07-10T01:57:15;14.10;99.90
6146;DHT22;3104;50.348;7.620;2022-07-10T01:59:41;14.00;99.90
6146;DHT22;3104;50.348;7.620;2022-07-10T02:02:07;13.90;99.90
6146;DHT22;3104;50.348;7.620;2022-07-10T02:04:33;14.00;99.90
6146;DHT22;3104;50.348;7.620;2022-07-10T02:07:11;14.00;99.90
6146;DHT22;3104;50.348;7.620;2022-07-10T02:09:38;14.00;99.90
6146;DHT22;3104;50.348;7.620;2022-07-10T02:12:08;14.00;99.90
6146;DHT22;3104;50.348;7.620;2022-07-10T02:14:34;13.90;99.90
6146;DHT22;3104;50.348;7.620;2022-07-10T02:17:00;13.80;99.90
6146;DHT22;3104;50.348;7.620;2022-07-10T02:19:26;13.80;99.90
6146;DHT22;3104;50.348;7.620;2022-07-10T02:21:52;13.70;99.90
6146;DHT22;3104;50.348;7.620;2022-07-10T02:24:18;13.70;99.90
6146;DHT22;3104;50.348;7.620;2022-07-10T02:26:43;13.80;99.90
6146;DHT22;3104;50.348;7.620;2022-07-10T02:29:09;13.70;99.90
6146;DHT22;3104;50.348;7.620;2022-07-10T02:31:34;13.60;99.90
6146;DHT22;3104;50.348;7.620;2022-07-10T02:34:08;13.60;99.90
6146;DHT22;3104;50.348;7.620;2022-07-10T02:36:35;13.60;99.90
6146;DHT22;3104;50.348;7.620;2022-07-10T02:39:02;13.50;99.90
6146;DHT22;3104;50.348;7.620;2022-07-10T02:41:28;13.50;99.90
6146;DHT22;3104;50.348;7.620;2022-07-10T02:43:54;13.40;99.90
6146;DHT22;3104;50.348;7.620;2022-07-10T02:46:20;13.40;99.90
6146;DHT22;3104;50.348;7.620;2022-07-10T02:48:45;13.50;99.90
6146;DHT22;3104;50.348;7.620;2022-07-10T02:51:11;13.50;99.90
6146;DHT22;3104;50.348;7.620;2022-07-10T02:53:36;13.40;99.90
6146;DHT22;3104;50.348;7.620;2022-07-10T02:56:02;13.40;99.90
6146;DHT22;3104;50.348;7.620;2022-07-10T02:58:28;13.30;99.90
6146;DHT22;3104;50.348;7.620;2022-07-10T03:00:53;13.30;99.90
6146;DHT22;3104;50.348;7.620;2022-07-10T03:03:19;13.30;99.90
6146;DHT22;3104;50.348;7.620;2022-07-10T03:05:45;13.20;99.90
6146;DHT22;3104;50.348;7.620;2022-07-10T03:08:11;13.30;99.90
6146;DHT22;3104;50.348;7.620;2022-07-10T03:10:37;13.30;99.90
6146;DHT22;3104;50.348;7.620;2022-07-10T03:13:03;13.30;99.90
6146;DHT22;3104;50.348;7.620;2022-07-10T03:15:29;13.20;99.90
6146;DHT22;3104;50.348;7.620;2022-07-10T03:17:54;13.20;99.90
6146;DHT22;3104;50.348;7.620;2022-07-10T03:20:20;13.20;99.90
6146;DHT22;3104;50.348;7.620;2022-07-10T03:22:46;13.10;99.90
6146;DHT22;3104;50.348;7.620;2022-07-10T03:25:12;13.10;99.90
6146;DHT22;3104;50.348;7.620;2022-07-10T03:27:39;13.00;99.90
6146;DHT22;3104;50.348;7.620;2022-07-10T03:30:05;13.00;99.90
6146;DHT22;3104;50.348;7.620;2022-07-10T03:32:31;13.00;99.90
6146;DHT22;3104;50.348;7.620;2022-07-10T03:34:56;13.00;99.90
6146;DHT22;3104;50.348;7.620;2022-07-10T03:37:22;12.90;99.90
6146;DHT22;3104;50.348;7.620;2022-07-10T03:39:47;12.90;99.90
6146;DHT22;3104;50.348;7.620;2022-07-10T03:42:13;12.90;99.90
6146;DHT22;3104;50.348;7.620;2022-07-10T03:44:40;12.90;99.90
6146;DHT22;3104;50.348;7.620;2022-07-10T03:47:05;13.00;99.90
6146;DHT22;3104;50.348;7.620;2022-07-10T03:49:31;12.80;99.90
6146;DHT22;3104;50.348;7.620;2022-07-10T03:52:00;12.90;99.90
6146;DHT22;3104;50.348;7.620;2022-07-10T03:54:27;12.80;99.90
6146;DHT22;3104;50.348;7.620;2022-07-10T03:56:53;12.90;99.90
6146;DHT22;3104;50.348;7.620;2022-07-10T03:59:37;12.90;99.90
6146;DHT22;3104;50.348;7.620;2022-07-10T04:02:03;12.90;99.90
6146;DHT22;3104;50.348;7.620;2022-07-10T04:04:28;12.90;99.90
6146;DHT22;3104;50.348;7.620;2022-07-10T04:06:54;12.90;99.90
6146;DHT22;3104;50.348;7.620;2022-07-10T04:09:20;12.80;99.90
6146;DHT22;3104;50.348;7.620;2022-07-10T04:11:46;12.80;99.90
6146;DHT22;3104;50.348;7.620;2022-07-10T04:14:11;12.90;99.90
6146;DHT22;3104;50.348;7.620;2022-07-10T04:16:37;12.80;99.90
6146;DHT22;3104;50.348;7.620;2022-07-10T04:19:02;12.90;99.90
6146;DHT22;3104;50.348;7.620;2022-07-10T04:21:28;12.90;99.90
6146;DHT22;3104;50.348;7.620;2022-07-10T04:23:54;13.00;99.90
6146;DHT22;3104;50.348;7.620;2022-07-10T04:26:19;13.10;99.90
6146;DHT22;3104;50.348;7.620;2022-07-10T04:28:45;13.10;99.90
6146;DHT22;3104;50.348;7.620;2022-07-10T04:31:11;13.10;99.90
6146;DHT22;3104;50.348;7.620;2022-07-10T04:33:36;13.10;99.90
6146;DHT22;3104;50.348;7.620;2022-07-10T04:36:02;13.20;99.90
6146;DHT22;3104;50.348;7.620;2022-07-10T04:38:28;13.20;99.90
6146;DHT22;3104;50.348;7.620;2022-07-10T04:40:54;13.20;99.90
6146;DHT22;3104;50.348;7.620;2022-07-10T04:43:20;13.30;99.90
6146;DHT22;3104;50.348;7.620;2022-07-10T04:45:46;13.30;99.90
6146;DHT22;3104;50.348;7.620;2022-07-10T04:48:11;13.40;99.90
6146;DHT22;3104;50.348;7.620;2022-07-10T04:50:37;13.50;99.90
6146;DHT22;3104;50.348;7.620;2022-07-10T04:53:03;13.40;99.90
6146;DHT22;3104;50.348;7.620;2022-07-10T04:55:29;13.50;99.90
6146;DHT22;3104;50.348;7.620;2022-07-10T04:57:54;13.60;99.90
6146;DHT22;3104;50.348;7.620;2022-07-10T05:00:20;13.60;99.90
6146;DHT22;3104;50.348;7.620;2022-07-10T05:02:46;13.40;99.90
6146;DHT22;3104;50.348;7.620;2022-07-10T05:05:11;13.40;99.90
6146;DHT22;3104;50.348;7.620;2022-07-10T05:07:37;13.50;99.90
6146;DHT22;3104;50.348;7.620;2022-07-10T05:10:03;13.60;99.90
6146;DHT22;3104;50.348;7.620;2022-07-10T05:12:28;13.70;99.90
6146;DHT22;3104;50.348;7.620;2022-07-10T05:14:54;13.90;99.90
6146;DHT22;3104;50.348;7.620;2022-07-10T05:17:19;13.90;99.90
6146;DHT22;3104;50.348;7.620;2022-07-10T05:19:45;13.90;99.90
6146;DHT22;3104;50.348;7.620;2022-07-10T05:22:11;14.10;99.90
6146;DHT22;3104;50.348;7.620;2022-07-10T05:24:36;14.20;99.90
6146;DHT22;3104;50.348;7.620;2022-07-10T05:27:02;14.00;99.90
6146;DHT22;3104;50.348;7.620;2022-07-10T05:29:27;14.10;99.90
6146;DHT22;3104;50.348;7.620;2022-07-10T05:31:53;14.10;99.90
6146;DHT22;3104;50.348;7.620;2022-07-10T05:34:19;14.20;99.90
6146;DHT22;3104;50.348;7.620;2022-07-10T05:36:44;14.20;99.90
6146;DHT22;3104;50.348;7.620;2022-07-10T05:39:10;14.20;99.90
6146;DHT22;3104;50.348;7.620;2022-07-10T05:41:36;14.20;99.90
6146;DHT22;3104;50.348;7.620;2022-07-10T05:44:01;14.10;99.90
6146;DHT22;3104;50.348;7.620;2022-07-10T05:46:27;14.20;99.90
6146;DHT22;3104;50.348;7.620;2022-07-10T05:48:53;14.20;99.90
6146;DHT22;3104;50.348;7.620;2022-07-10T05:51:18;14.30;99.90
6146;DHT22;3104;50.348;7.620;2022-07-10T05:53:44;14.50;99.90
6146;DHT22;3104;50.348;7.620;2022-07-10T05:56:09;14.60;99.90
6146;DHT22;3104;50.348;7.620;2022-07-10T05:58:35;14.60;99.90
6146;DHT22;3104;50.348;7.620;2022-07-10T06:01:01;14.50;99.90
6146;DHT22;3104;50.348;7.620;2022-07-10T06:03:26;14.50;99.90
6146;DHT22;3104;50.348;7.620;2022-07-10T06:05:52;14.40;99.90
6146;DHT22;3104;50.348;7.620;2022-07-10T06:08:18;14.50;99.90
6146;DHT22;3104;50.348;7.620;2022-07-10T06:10:44;14.60;99.90
6146;DHT22;3104;50.348;7.620;2022-07-10T06:13:11;14.70;99.90
6146;DHT22;3104;50.348;7.620;2022-07-10T06:15:36;14.70;99.90
6146;DHT22;3104;50.348;7.620;2022-07-10T06:18:02;14.70;99.90
6146;DHT22;3104;50.348;7.620;2022-07-10T06:20:28;14.80;99.90
6146;DHT22;3104;50.348;7.620;2022-07-10T06:22:54;14.70;99.90
6146;DHT22;3104;50.348;7.620;2022-07-10T06:25:20;14.60;99.90
6146;DHT22;3104;50.348;7.620;2022-07-10T06:27:45;14.60;99.90
6146;DHT22;3104;50.348;7.620;2022-07-10T06:30:11;14.60;99.90
6146;DHT22;3104;50.348;7.620;2022-07-10T06:32:38;14.80;99.90
6146;DHT22;3104;50.348;7.620;2022-07-10T06:35:04;14.80;99.90
6146;DHT22;3104;50.348;7.620;2022-07-10T06:37:30;14.60;99.90
6146;DHT22;3104;50.348;7.620;2022-07-10T06:39:56;14.70;99.90
6146;DHT22;3104;50.348;7.620;2022-07-10T06:42:22;15.00;99.90
6146;DHT22;3104;50.348;7.620;2022-07-10T06:44:48;14.90;99.90
6146;DHT22;3104;50.348;7.620;2022-07-10T06:47:16;14.80;99.90
6146;DHT22;3104;50.348;7.620;2022-07-10T06:50:04;15.10;99.90
6146;DHT22;3104;50.348;7.620;2022-07-10T06:52:33;15.20;99.90
6146;DHT22;3104;50.348;7.620;2022-07-10T06:55:00;15.10;99.90
6146;DHT22;3104;50.348;7.620;2022-07-10T06:57:26;15.10;99.90
6146;DHT22;3104;50.348;7.620;2022-07-10T06:59:51;15.10;99.90
6146;DHT22;3104;50.348;7.620;2022-07-10T07:02:18;15.10;99.90
6146;DHT22;3104;50.348;7.620;2022-07-10T07:04:43;15.00;99.90
6146;DHT22;3104;50.348;7.620;2022-07-10T07:07:13;14.90;99.90
6146;DHT22;3104;50.348;7.620;2022-07-10T07:09:39;15.00;99.90
6146;DHT22;3104;50.348;7.620;2022-07-10T07:12:05;15.10;99.90
6146;DHT22;3104;50.348;7.620;2022-07-10T07:14:31;15.20;99.90
6146;DHT22;3104;50.348;7.620;2022-07-10T07:16:57;15.10;99.90
6146;DHT22;3104;50.348;7.620;2022-07-10T07:19:25;15.20;99.90
6146;DHT22;3104;50.348;7.620;2022-07-10T07:21:59;15.50;99.90
6146;DHT22;3104;50.348;7.620;2022-07-10T07:24:43;15.80;99.90
6146;DHT22;3104;50.348;7.620;2022-07-10T07:27:10;15.70;99.90
6146;DHT22;3104;50.348;7.620;2022-07-10T07:29:36;15.60;99.90
6146;DHT22;3104;50.348;7.620;2022-07-10T07:32:03;15.40;99.90
6146;DHT22;3104;50.348;7.620;2022-07-10T07:34:28;15.40;99.90
6146;DHT22;3104;50.348;7.620;2022-07-10T07:36:54;15.30;99.90
6146;DHT22;3104;50.348;7.620;2022-07-10T07:39:19;15.20;99.90
6146;DHT22;3104;50.348;7.620;2022-07-10T07:41:45;15.10;99.90
6146;DHT22;3104;50.348;7.620;2022-07-10T07:44:10;15.30;99.90
6146;DHT22;3104;50.348;7.620;2022-07-10T07:46:37;15.50;99.90
6146;DHT22;3104;50.348;7.620;2022-07-10T07:49:03;15.60;99.90
6146;DHT22;3104;50.348;7.620;2022-07-10T07:51:29;15.90;99.90
6146;DHT22;3104;50.348;7.620;2022-07-10T07:53:54;16.30;99.90
6146;DHT22;3104;50.348;7.620;2022-07-10T07:56:20;16.50;99.90
6146;DHT22;3104;50.348;7.620;2022-07-10T07:58:45;16.80;99.90
6146;DHT22;3104;50.348;7.620;2022-07-10T08:01:11;16.80;99.90
6146;DHT22;3104;50.348;7.620;2022-07-10T08:03:36;16.30;99.90
6146;DHT22;3104;50.348;7.620;2022-07-10T08:06:02;16.20;99.90
6146;DHT22;3104;50.348;7.620;2022-07-10T08:08:28;16.30;99.90
6146;DHT22;3104;50.348;7.620;2022-07-10T08:10:54;16.30;99.90
6146;DHT22;3104;50.348;7.620;2022-07-10T08:13:19;16.20;99.90
6146;DHT22;3104;50.348;7.620;2022-07-10T08:15:45;16.20;99.90
6146;DHT22;3104;50.348;7.620;2022-07-10T08:18:11;16.10;99.90
6146;DHT22;3104;50.348;7.620;2022-07-10T08:20:36;16.20;99.90
6146;DHT22;3104;50.348;7.620;2022-07-10T08:23:02;16.30;99.90
6146;DHT22;3104;50.348;7.620;2022-07-10T08:25:28;16.40;99.90
6146;DHT22;3104;50.348;7.620;2022-07-10T08:27:59;16.50;99.90
6146;DHT22;3104;50.348;7.620;2022-07-10T08:30:25;16.50;99.90
6146;DHT22;3104;50.348;7.620;2022-07-10T08:32:51;16.50;99.90
6146;DHT22;3104;50.348;7.620;2022-07-10T08:35:16;17.70;99.90
6146;DHT22;3104;50.348;7.620;2022-07-10T08:37:43;18.30;99.90
6146;DHT22;3104;50.348;7.620;2022-07-10T08:40:11;17.90;99.90
6146;DHT22;3104;50.348;7.620;2022-07-10T08:42:38;17.30;99.90
6146;DHT22;3104;50.348;7.620;2022-07-10T08:45:05;16.70;99.90
6146;DHT22;3104;50.348;7.620;2022-07-10T08:47:34;16.70;99.90
6146;DHT22;3104;50.348;7.620;2022-07-10T08:50:00;16.70;99.90
6146;DHT22;3104;50.348;7.620;2022-07-10T08:52:36;16.50;99.90
6146;DHT22;3104;50.348;7.620;2022-07-10T08:55:04;16.70;99.90
6146;DHT22;3104;50.348;7.620;2022-07-10T08:57:30;17.40;99.90
6146;DHT22;3104;50.348;7.620;2022-07-10T08:59:57;18.20;99.90
6146;DHT22;3104;50.348;7.620;2022-07-10T09:02:22;19.20;99.90
6146;DHT22;3104;50.348;7.620;2022-07-10T09:04:48;20.10;99.90
6146;DHT22;3104;50.348;7.620;2022-07-10T09:07:14;19.40;99.90
6146;DHT22;3104;50.348;7.620;2022-07-10T09:09:57;18.90;99.90
6146;DHT22;3104;50.348;7.620;2022-07-10T09:12:24;18.10;99.90
6146;DHT22;3104;50.348;7.620;2022-07-10T09:14:51;17.60;99.90
6146;DHT22;3104;50.348;7.620;2022-07-10T09:17:20;17.50;99.90
6146;DHT22;3104;50.348;7.620;2022-07-10T09:19:45;18.40;99.90
6146;DHT22;3104;50.348;7.620;2022-07-10T09:22:12;19.30;99.90
6146;DHT22;3104;50.348;7.620;2022-07-10T09:24:43;19.30;99.90
6146;DHT22;3104;50.348;7.620;2022-07-10T09:27:10;18.80;99.90
6146;DHT22;3104;50.348;7.620;2022-07-10T09:29:49;18.20;99.90
6146;DHT22;3104;50.348;7.620;2022-07-10T09:32:17;17.80;99.90
6146;DHT22;3104;50.348;7.620;2022-07-10T09:34:44;17.40;99.90
6146;DHT22;3104;50.348;7.620;2022-07-10T09:42:30;17.90;99.90
6146;DHT22;3104;50.348;7.620;2022-07-10T09:47:57;18.10;99.90
6146;DHT22;3104;50.348;7.620;2022-07-10T09:50:36;18.30;99.90
6146;DHT22;3104;50.348;7.620;2022-07-10T09:53:10;18.70;99.90
6146;DHT22;3104;50.348;7.620;2022-07-10T09:55:37;18.80;99.90
6146;DHT22;3104;50.348;7.620;2022-07-10T09:58:07;18.40;99.90
6146;DHT22;3104;50.348;7.620;2022-07-10T10:00:38;18.10;99.90
6146;DHT22;3104;50.348;7.620;2022-07-10T10:03:07;18.20;99.90
6146;DHT22;3104;50.348;7.620;2022-07-10T10:10:40;17.70;99.90
6146;DHT22;3104;50.348;7.620;2022-07-10T10:13:10;17.70;99.90
6146;DHT22;3104;50.348;7.620;2022-07-10T10:15:37;17.60;99.90
6146;DHT22;3104;50.348;7.620;2022-07-10T10:18:03;17.80;99.90
6146;DHT22;3104;50.348;7.620;2022-07-10T10:20:32;18.10;99.90
6146;DHT22;3104;50.348;7.620;2022-07-10T10:23:05;17.90;99.90
6146;DHT22;3104;50.348;7.620;2022-07-10T10:25:34;17.90;99.90
6146;DHT22;3104;50.348;7.620;2022-07-10T10:28:02;17.90;99.90
6146;DHT22;3104;50.348;7.620;2022-07-10T10:30:30;18.00;99.90
6146;DHT22;3104;50.348;7.620;2022-07-10T10:32:55;18.10;99.90
6146;DHT22;3104;50.348;7.620;2022-07-10T10:35:50;18.10;99.90
6146;DHT22;3104;50.348;7.620;2022-07-10T10:38:16;17.90;99.90
6146;DHT22;3104;50.348;7.620;2022-07-10T10:40:42;17.80;99.90
6146;DHT22;3104;50.348;7.620;2022-07-10T10:43:21;17.60;99.90
6146;DHT22;3104;50.348;7.620;2022-07-10T10:45:48;17.80;99.90
6146;DHT22;3104;50.348;7.620;2022-07-10T10:48:15;17.90;99.90
6146;DHT22;3104;50.348;7.620;2022-07-10T10:50:51;18.20;99.90
6146;DHT22;3104;50.348;7.620;2022-07-10T10:53:19;18.10;99.90
6146;DHT22;3104;50.348;7.620;2022-07-10T10:58:41;18.60;99.90
6146;DHT22;3104;50.348;7.620;2022-07-10T11:06:52;19.70;99.90
6146;DHT22;3104;50.348;7.620;2022-07-10T11:09:22;19.30;99.90
6146;DHT22;3104;50.348;7.620;2022-07-10T11:12:11;18.60;99.90
6146;DHT22;3104;50.348;7.620;2022-07-10T11:14:40;18.80;99.90
6146;DHT22;3104;50.348;7.620;2022-07-10T11:17:08;19.00;99.90
6146;DHT22;3104;50.348;7.620;2022-07-10T11:19:34;19.30;99.90
6146;DHT22;3104;50.348;7.620;2022-07-10T11:26:04;18.40;99.90
6146;DHT22;3104;50.348;7.620;2022-07-10T11:28:21;18.10;99.90
6146;DHT22;3104;50.348;7.620;2022-07-10T11:30:51;18.00;99.90
6146;DHT22;3104;50.348;7.620;2022-07-10T11:33:18;18.00;99.90
6146;DHT22;3104;50.348;7.620;2022-07-10T11:35:47;18.10;99.90
6146;DHT22;3104;50.348;7.620;2022-07-10T11:38:22;18.20;99.90
6146;DHT22;3104;50.348;7.620;2022-07-10T11:40:48;18.10;99.90
6146;DHT22;3104;50.348;7.620;2022-07-10T11:43:14;18.40;99.90
6146;DHT22;3104;50.348;7.620;2022-07-10T11:45:43;18.70;99.90
6146;DHT22;3104;50.348;7.620;2022-07-10T11:48:19;18.60;99.90
6146;DHT22;3104;50.348;7.620;2022-07-10T11:50:45;18.70;99.90
6146;DHT22;3104;50.348;7.620;2022-07-10T11:53:11;18.70;99.90
6146;DHT22;3104;50.348;7.620;2022-07-10T11:55:38;18.80;99.90
6146;DHT22;3104;50.348;7.620;2022-07-10T11:58:16;19.00;99.90
6146;DHT22;3104;50.348;7.620;2022-07-10T12:00:42;19.40;99.90
6146;DHT22;3104;50.348;7.620;2022-07-10T12:03:20;19.20;99.90
6146;DHT22;3104;50.348;7.620;2022-07-10T12:05:46;19.50;99.90
6146;DHT22;3104;50.348;7.620;2022-07-10T12:08:12;19.80;99.90
6146;DHT22;3104;50.348;7.620;2022-07-10T12:10:39;19.50;99.90
6146;DHT22;3104;50.348;7.620;2022-07-10T12:13:12;19.30;99.90
6146;DHT22;3104;50.348;7.620;2022-07-10T12:15:45;18.90;99.90
6146;DHT22;3104;50.348;7.620;2022-07-10T12:18:19;19.10;99.90
6146;DHT22;3104;50.348;7.620;2022-07-10T12:20:47;18.80;99.90
6146;DHT22;3104;50.348;7.620;2022-07-10T12:23:17;18.70;99.90
6146;DHT22;3104;50.348;7.620;2022-07-10T12:25:44;19.20;99.90
6146;DHT22;3104;50.348;7.620;2022-07-10T12:28:10;19.50;99.90
6146;DHT22;3104;50.348;7.620;2022-07-10T12:33:10;19.20;99.90
6146;DHT22;3104;50.348;7.620;2022-07-10T12:35:56;19.30;99.90
6146;DHT22;3104;50.348;7.620;2022-07-10T12:38:22;19.10;99.90
6146;DHT22;3104;50.348;7.620;2022-07-10T12:40:49;19.40;99.90
6146;DHT22;3104;50.348;7.620;2022-07-10T12:43:25;19.10;99.90
6146;DHT22;3104;50.348;7.620;2022-07-10T12:46:17;19.30;99.90
6146;DHT22;3104;50.348;7.620;2022-07-10T12:49:01;18.90;99.90
6146;DHT22;3104;50.348;7.620;2022-07-10T12:51:29;18.30;99.90
6146;DHT22;3104;50.348;7.620;2022-07-10T12:53:55;18.50;99.90
6146;DHT22;3104;50.348;7.620;2022-07-10T12:56:27;18.40;99.90
6146;DHT22;3104;50.348;7.620;2022-07-10T12:58:53;18.90;99.90
6146;DHT22;3104;50.348;7.620;2022-07-10T13:01:19;18.70;99.90
6146;DHT22;3104;50.348;7.620;2022-07-10T13:03:44;18.50;99.90
6146;DHT22;3104;50.348;7.620;2022-07-10T13:06:32;18.70;99.90
6146;DHT22;3104;50.348;7.620;2022-07-10T13:08:59;18.50;99.90
6146;DHT22;3104;50.348;7.620;2022-07-10T13:11:25;18.60;99.90
6146;DHT22;3104;50.348;7.620;2022-07-10T13:13:51;18.50;99.90
6146;DHT22;3104;50.348;7.620;2022-07-10T13:16:16;18.40;99.90
6146;DHT22;3104;50.348;7.620;2022-07-10T13:18:42;18.60;99.90
6146;DHT22;3104;50.348;7.620;2022-07-10T13:21:09;18.50;99.90
6146;DHT22;3104;50.348;7.620;2022-07-10T13:23:37;18.60;99.90
6146;DHT22;3104;50.348;7.620;2022-07-10T13:26:03;18.60;99.90
6146;DHT22;3104;50.348;7.620;2022-07-10T13:28:30;18.90;99.90
6146;DHT22;3104;50.348;7.620;2022-07-10T13:30:55;19.20;99.90
6146;DHT22;3104;50.348;7.620;2022-07-10T13:33:21;19.00;99.90
6146;DHT22;3104;50.348;7.620;2022-07-10T13:35:49;18.80;99.90
6146;DHT22;3104;50.348;7.620;2022-07-10T13:38:15;18.90;99.90
6146;DHT22;3104;50.348;7.620;2022-07-10T13:40:44;19.00;99.90
6146;DHT22;3104;50.348;7.620;2022-07-10T13:43:11;19.00;99.90
6146;DHT22;3104;50.348;7.620;2022-07-10T13:45:38;19.00;99.90
6146;DHT22;3104;50.348;7.620;2022-07-10T13:48:09;18.70;99.90
6146;DHT22;3104;50.348;7.620;2022-07-10T13:50:38;18.50;99.90
6146;DHT22;3104;50.348;7.620;2022-07-10T13:53:04;18.30;99.90
6146;DHT22;3104;50.348;7.620;2022-07-10T13:55:29;18.30;99.90
6146;DHT22;3104;50.348;7.620;2022-07-10T13:57:55;18.40;99.90
6146;DHT22;3104;50.348;7.620;2022-07-10T14:00:21;18.40;99.90
6146;DHT22;3104;50.348;7.620;2022-07-10T14:02:46;18.40;99.90
6146;DHT22;3104;50.348;7.620;2022-07-10T14:05:12;18.30;99.90
6146;DHT22;3104;50.348;7.620;2022-07-10T14:07:38;18.40;99.90
6146;DHT22;3104;50.348;7.620;2022-07-10T14:10:04;18.40;99.90
6146;DHT22;3104;50.348;7.620;2022-07-10T14:12:31;18.40;99.90
6146;DHT22;3104;50.348;7.620;2022-07-10T14:14:57;18.20;99.90
6146;DHT22;3104;50.348;7.620;2022-07-10T14:17:23;18.30;99.90
6146;DHT22;3104;50.348;7.620;2022-07-10T14:19:49;18.20;99.90
6146;DHT22;3104;50.348;7.620;2022-07-10T14:22:15;18.30;99.90
6146;DHT22;3104;50.348;7.620;2022-07-10T14:24:41;18.10;99.90
6146;DHT22;3104;50.348;7.620;2022-07-10T14:27:07;18.10;99.90
6146;DHT22;3104;50.348;7.620;2022-07-10T14:29:33;18.10;99.90
6146;DHT22;3104;50.348;7.620;2022-07-10T14:31:59;18.10;99.90
6146;DHT22;3104;50.348;7.620;2022-07-10T14:34:25;18.40;99.90
6146;DHT22;3104;50.348;7.620;2022-07-10T14:36:51;18.50;99.90
6146;DHT22;3104;50.348;7.620;2022-07-10T14:39:16;18.40;99.90
6146;DHT22;3104;50.348;7.620;2022-07-10T14:41:42;18.20;99.90
6146;DHT22;3104;50.348;7.620;2022-07-10T14:44:08;18.20;99.90
6146;DHT22;3104;50.348;7.620;2022-07-10T14:46:33;18.20;99.90
6146;DHT22;3104;50.348;7.620;2022-07-10T14:48:59;18.20;99.90
6146;DHT22;3104;50.348;7.620;2022-07-10T14:51:25;18.00;99.90
6146;DHT22;3104;50.348;7.620;2022-07-10T14:53:51;17.90;99.90
6146;DHT22;3104;50.348;7.620;2022-07-10T14:56:17;18.10;99.90
6146;DHT22;3104;50.348;7.620;2022-07-10T14:58:45;18.20;99.90
6146;DHT22;3104;50.348;7.620;2022-07-10T15:01:10;18.30;99.90
6146;DHT22;3104;50.348;7.620;2022-07-10T15:03:36;18.20;99.90
6146;DHT22;3104;50.348;7.620;2022-07-10T15:06:01;18.10;99.90
6146;DHT22;3104;50.348;7.620;2022-07-10T15:08:27;18.10;99.90
6146;DHT22;3104;50.348;7.620;2022-07-10T15:10:53;18.00;99.90
6146;DHT22;3104;50.348;7.620;2022-07-10T15:13:18;17.90;99.90
6146;DHT22;3104;50.348;7.620;2022-07-10T15:15:44;17.90;99.90
6146;DHT22;3104;50.348;7.620;2022-07-10T15:18:10;17.90;99.90
6146;DHT22;3104;50.348;7.620;2022-07-10T15:20:36;18.10;99.90
6146;DHT22;3104;50.348;7.620;2022-07-10T15:23:03;18.20;99.90
6146;DHT22;3104;50.348;7.620;2022-07-10T15:25:29;18.30;99.90
6146;DHT22;3104;50.348;7.620;2022-07-10T15:27:55;18.60;99.90
6146;DHT22;3104;50.348;7.620;2022-07-10T15:30:21;18.90;99.90
6146;DHT22;3104;50.348;7.620;2022-07-10T15:32:47;18.70;99.90
6146;DHT22;3104;50.348;7.620;2022-07-10T15:35:13;18.60;99.90
6146;DHT22;3104;50.348;7.620;2022-07-10T15:37:38;18.50;99.90
6146;DHT22;3104;50.348;7.620;2022-07-10T15:40:05;18.60;99.90
6146;DHT22;3104;50.348;7.620;2022-07-10T15:42:31;18.70;99.90
6146;DHT22;3104;50.348;7.620;2022-07-10T15:44:57;18.70;99.90
6146;DHT22;3104;50.348;7.620;2022-07-10T15:47:22;18.60;99.90
6146;DHT22;3104;50.348;7.620;2022-07-10T15:49:48;18.60;99.90
6146;DHT22;3104;50.348;7.620;2022-07-10T15:52:13;18.50;99.90
6146;DHT22;3104;50.348;7.620;2022-07-10T15:54:39;18.40;99.90
6146;DHT22;3104;50.348;7.620;2022-07-10T15:57:06;18.50;99.90
6146;DHT22;3104;50.348;7.620;2022-07-10T15:59:33;18.50;99.90
6146;DHT22;3104;50.348;7.620;2022-07-10T16:02:00;18.40;99.90
6146;DHT22;3104;50.348;7.620;2022-07-10T16:04:26;18.70;99.90
6146;DHT22;3104;50.348;7.620;2022-07-10T16:06:51;18.90;99.90
6146;DHT22;3104;50.348;7.620;2022-07-10T16:09:18;18.80;99.90
6146;DHT22;3104;50.348;7.620;2022-07-10T16:11:44;18.70;99.90
6146;DHT22;3104;50.348;7.620;2022-07-10T16:14:11;18.40;99.90
6146;DHT22;3104;50.348;7.620;2022-07-10T16:16:37;18.60;99.90
6146;DHT22;3104;50.348;7.620;2022-07-10T16:19:07;18.60;99.90
6146;DHT22;3104;50.348;7.620;2022-07-10T16:21:36;18.80;99.90
6146;DHT22;3104;50.348;7.620;2022-07-10T16:24:02;18.80;99.90
6146;DHT22;3104;50.348;7.620;2022-07-10T16:26:28;18.80;99.90
6146;DHT22;3104;50.348;7.620;2022-07-10T16:28:54;18.70;99.90